createdAt,value
2023-02-07T00:02:24.891Z,-5.47
2023-02-07T00:04:52.822Z,-5.21
2023-02-07T00:07:20.329Z,-5.18
2023-02-07T00:09:47.498Z,-5.29
2023-02-07T00:12:14.652Z,-5.36
2023-02-07T00:14:41.782Z,-5.40
2023-02-07T00:17:09.083Z,-5.48
2023-02-07T00:19:36.457Z,-5.74
2023-02-07T00:22:03.810Z,-5.41
2023-02-07T00:24:30.907Z,-5.03
2023-02-07T00:26:58.380Z,-4.95
2023-02-07T00:29:28.306Z,-4.93
2023-02-07T00:31:55.673Z,-5.28
2023-02-07T00:34:25.663Z,-4.95
2023-02-07T00:36:53.615Z,-5.11
2023-02-07T00:39:22.197Z,-5.57
2023-02-07T00:41:50.301Z,-5.62
2023-02-07T00:44:18.478Z,-5.68
2023-02-07T00:46:47.826Z,-5.78
2023-02-07T00:49:15.647Z,-5.53
2023-02-07T00:51:42.645Z,-5.46
2023-02-07T00:54:10.178Z,-5.64
2023-02-07T00:56:37.450Z,-5.52
2023-02-07T00:59:04.686Z,-5.21
2023-02-07T01:01:33.628Z,-5.55
2023-02-07T01:04:13.627Z,-5.59
2023-02-07T01:06:40.912Z,-5.65
2023-02-07T01:09:09.441Z,-5.66
2023-02-07T01:11:40.126Z,-6.01
2023-02-07T01:14:14.357Z,-5.87
2023-02-07T01:16:42.841Z,-5.54
2023-02-07T01:19:33.974Z,-5.54
2023-02-07T01:22:02.146Z,-5.73
2023-02-07T01:24:35.722Z,-5.71
2023-02-07T01:27:11.600Z,-5.66
2023-02-07T01:29:50.725Z,-5.61
2023-02-07T01:32:48.581Z,-5.60
2023-02-07T01:35:19.060Z,-5.59
2023-02-07T01:37:50.891Z,-5.59
2023-02-07T01:40:31.704Z,-5.89
2023-02-07T01:43:01.691Z,-5.96
2023-02-07T01:45:33.839Z,-6.05
2023-02-07T01:48:09.071Z,-5.94
2023-02-07T01:50:43.419Z,-5.94
2023-02-07T01:53:19.207Z,-6.06
2023-02-07T01:58:40.578Z,-6.27
2023-02-07T02:01:14.171Z,-6.10
2023-02-07T02:03:45.246Z,-6.17
2023-02-07T02:06:14.076Z,-6.00
2023-02-07T02:08:41.531Z,-5.87
2023-02-07T02:11:43.090Z,-5.56
2023-02-07T02:14:29.732Z,-5.96
2023-02-07T02:17:24.938Z,-6.10
2023-02-07T02:20:04.620Z,-6.34
2023-02-07T02:23:00.155Z,-6.05
2023-02-07T02:25:41.120Z,-6.03
2023-02-07T02:28:42.631Z,-6.14
2023-02-07T02:31:29.000Z,-6.37
2023-02-07T02:34:22.433Z,-6.05
2023-02-07T02:37:17.498Z,-5.80
2023-02-07T02:40:27.189Z,-5.95
2023-02-07T02:43:33.977Z,-6.21
2023-02-07T02:46:15.274Z,-5.91
2023-02-07T02:48:45.373Z,-6.07
2023-02-07T02:51:17.638Z,-5.95
2023-02-07T02:54:02.736Z,-6.15
2023-02-07T02:57:08.802Z,-6.02
2023-02-07T03:00:16.726Z,-5.98
2023-02-07T03:03:07.739Z,-6.22
2023-02-07T03:06:15.749Z,-6.20
2023-02-07T03:09:06.447Z,-6.28
2023-02-07T03:11:42.373Z,-6.17
2023-02-07T03:14:27.830Z,-6.54
2023-02-07T03:17:15.111Z,-6.40
2023-02-07T03:19:48.977Z,-6.33
2023-02-07T03:22:19.378Z,-6.29
2023-02-07T03:24:51.044Z,-6.66
2023-02-07T03:27:20.788Z,-6.38
2023-02-07T03:29:58.008Z,-6.17
2023-02-07T03:32:37.104Z,-6.07
2023-02-07T03:35:31.050Z,-5.95
2023-02-07T03:38:01.280Z,-6.24
2023-02-07T03:40:38.317Z,-6.23
2023-02-07T03:43:11.035Z,-6.29
2023-02-07T03:45:38.357Z,-6.19
2023-02-07T03:48:05.542Z,-6.16
2023-02-07T03:50:32.615Z,-6.19
2023-02-07T03:52:59.530Z,-6.10
2023-02-07T03:55:26.759Z,-6.27
2023-02-07T03:57:53.935Z,-6.30
2023-02-07T04:00:23.538Z,-6.40
2023-02-07T04:02:50.695Z,-6.62
2023-02-07T04:05:17.636Z,-6.36
2023-02-07T04:07:44.608Z,-6.59
2023-02-07T04:10:12.099Z,-6.46
2023-02-07T04:12:39.044Z,-6.55
2023-02-07T04:15:07.270Z,-6.56
2023-02-07T04:17:34.536Z,-6.45
2023-02-07T04:20:01.901Z,-6.32
2023-02-07T04:22:29.769Z,-6.42
2023-02-07T04:24:57.063Z,-6.68
2023-02-07T04:27:23.940Z,-6.54
2023-02-07T04:29:51.147Z,-6.08
2023-02-07T04:32:18.223Z,-6.44
2023-02-07T04:34:45.203Z,-6.46
2023-02-07T04:37:12.116Z,-6.55
2023-02-07T04:39:38.976Z,-6.35
2023-02-07T04:42:07.702Z,-6.24
2023-02-07T04:44:34.878Z,-6.57
2023-02-07T04:47:01.808Z,-6.52
2023-02-07T04:49:28.646Z,-6.61
2023-02-07T04:51:55.514Z,-6.45
2023-02-07T04:54:22.391Z,-6.67
2023-02-07T04:56:51.724Z,-6.38
2023-02-07T04:59:20.087Z,-6.46
2023-02-07T05:01:47.091Z,-6.59
2023-02-07T05:04:14.085Z,-6.81
2023-02-07T05:06:41.177Z,-6.46
2023-02-07T05:09:08.084Z,-6.65
2023-02-07T05:11:37.787Z,-6.90
2023-02-07T05:14:04.843Z,-6.31
2023-02-07T05:16:31.844Z,-6.64
2023-02-07T05:18:58.658Z,-6.32
2023-02-07T05:21:25.882Z,-6.10
2023-02-07T05:23:52.647Z,-6.25
2023-02-07T05:26:19.486Z,-6.30
2023-02-07T05:28:46.589Z,-6.56
2023-02-07T05:31:13.580Z,-6.39
2023-02-07T05:33:40.680Z,-6.58
2023-02-07T05:36:08.302Z,-6.50
2023-02-07T05:38:35.323Z,-6.17
2023-02-07T05:41:02.029Z,-6.10
2023-02-07T05:43:28.943Z,-5.97
2023-02-07T05:45:55.787Z,-6.46
2023-02-07T05:48:22.534Z,-6.49
2023-02-07T05:50:49.376Z,-6.66
2023-02-07T05:53:17.348Z,-6.77
2023-02-07T05:55:44.114Z,-6.71
2023-02-07T05:58:10.953Z,-6.63
2023-02-07T06:00:37.923Z,-6.40
2023-02-07T06:03:04.970Z,-6.21
2023-02-07T06:05:33.313Z,-6.44
2023-02-07T06:08:00.576Z,-6.15
2023-02-07T06:10:27.396Z,-4.36
2023-02-07T15:36:01.369Z,0.99
2023-02-07T15:38:37.678Z,0.92
2023-02-07T15:41:04.910Z,1.01
2023-02-07T15:54:17.810Z,-0.16
2023-02-07T15:56:49.078Z,-0.07
2023-02-07T15:59:21.109Z,-0.17
2023-02-07T16:01:57.173Z,-0.04
2023-02-07T16:04:26.736Z,-0.06
2023-02-07T16:07:25.428Z,-0.09
2023-02-07T16:10:01.674Z,-0.24
2023-02-07T16:12:32.255Z,-0.17
2023-02-07T16:15:25.045Z,-0.25
2023-02-07T16:17:52.593Z,-0.32
2023-02-07T16:20:20.422Z,-0.36
2023-02-07T16:22:50.741Z,-0.40
2023-02-07T16:25:21.969Z,-0.41
2023-02-07T16:27:51.989Z,-0.54
2023-02-07T16:30:23.606Z,-0.57
2023-02-07T16:32:50.787Z,-0.48
2023-02-07T16:35:19.487Z,-0.58
2023-02-07T16:37:46.447Z,-0.50
2023-02-07T16:40:14.003Z,-0.47
2023-02-07T16:42:42.838Z,-0.70
2023-02-07T16:45:19.688Z,-0.76
2023-02-07T16:47:47.090Z,-0.76
2023-02-07T16:50:16.142Z,-0.67
2023-02-07T16:52:43.056Z,-0.67
2023-02-07T16:55:10.271Z,-0.72
2023-02-07T16:57:38.932Z,-0.79
2023-02-07T17:00:12.216Z,-0.78
2023-02-07T17:02:44.446Z,-0.75
2023-02-07T17:05:11.635Z,-0.82
2023-02-07T17:07:47.122Z,-0.81
2023-02-07T17:10:48.889Z,-0.94
2023-02-07T17:13:15.787Z,-0.76
2023-02-07T17:15:44.505Z,-0.89
2023-02-07T17:18:15.223Z,-0.80
2023-02-07T17:20:42.210Z,-0.73
2023-02-07T17:26:44.114Z,-0.84
2023-02-07T17:40:45.656Z,-1.18
2023-02-07T17:43:12.620Z,-1.25
2023-02-07T17:45:39.669Z,-1.16
2023-02-07T17:48:06.832Z,-1.16
2023-02-07T17:50:42.641Z,-1.12
2023-02-07T17:53:12.605Z,-1.15
2023-02-07T17:55:44.475Z,-1.20
2023-02-07T17:58:18.639Z,-1.31
2023-02-07T18:01:34.131Z,-1.32
2023-02-07T18:04:02.711Z,-1.40
2023-02-07T18:06:40.897Z,-1.41
2023-02-07T18:09:10.941Z,-1.41
2023-02-07T18:11:37.908Z,-1.42
2023-02-07T18:14:16.016Z,-1.38
2023-02-07T18:16:43.657Z,-1.63
2023-02-07T18:19:20.458Z,-1.55
2023-02-07T18:21:52.276Z,-1.54
2023-02-07T18:27:16.584Z,-1.51
2023-02-07T18:29:44.947Z,-1.61
2023-02-07T18:32:17.520Z,-1.66
2023-02-07T18:34:45.349Z,-1.69
2023-02-07T18:37:12.589Z,-1.73
2023-02-07T18:39:40.251Z,-1.82
2023-02-07T18:42:07.399Z,-1.87
2023-02-07T18:44:34.831Z,-1.89
2023-02-07T18:47:01.969Z,-1.93
2023-02-07T18:49:29.120Z,-1.92
2023-02-07T18:51:56.189Z,-1.69
2023-02-07T18:54:24.467Z,-1.61
2023-02-07T18:56:52.665Z,-1.93
2023-02-07T18:59:24.173Z,-1.94
2023-02-07T19:01:53.750Z,-1.91
2023-02-07T19:04:21.646Z,-1.96
2023-02-07T19:06:52.433Z,-1.88
2023-02-07T19:09:21.332Z,-2.03
2023-02-07T19:11:51.090Z,-1.83
2023-02-07T19:14:23.252Z,-1.78
2023-02-07T19:16:53.165Z,-1.96
2023-02-07T19:19:21.125Z,-2.10
2023-02-07T19:21:48.036Z,-1.90
2023-02-07T19:24:16.463Z,-1.98
2023-02-07T19:26:43.523Z,-1.94
2023-02-07T19:29:13.755Z,-1.92
2023-02-07T19:31:43.568Z,-1.86
2023-02-07T19:34:13.031Z,-1.95
2023-02-07T19:36:41.580Z,-2.33
2023-02-07T19:39:09.017Z,-1.94
2023-02-07T19:41:36.060Z,-2.21
2023-02-07T19:44:06.309Z,-2.33
2023-02-07T19:46:34.292Z,-2.37
2023-02-07T19:49:01.272Z,-2.43
2023-02-07T19:51:29.712Z,-2.28
2023-02-07T19:53:56.997Z,-2.22
2023-02-07T19:56:26.801Z,-2.30
2023-02-07T19:58:55.720Z,-2.21
2023-02-07T20:01:25.438Z,-2.32
2023-02-07T20:03:52.874Z,-2.58
2023-02-07T20:06:23.601Z,-2.45
2023-02-07T20:08:50.861Z,-2.62
2023-02-07T20:11:19.586Z,-2.67
2023-02-07T20:13:50.290Z,-2.84
2023-02-07T20:16:21.772Z,-2.79
2023-02-07T20:18:49.906Z,-2.66
2023-02-07T20:21:22.017Z,-2.92
2023-02-07T20:23:54.194Z,-3.03
2023-02-07T20:26:42.810Z,-3.03
2023-02-07T20:29:16.097Z,-2.99
2023-02-07T20:31:44.942Z,-2.98
2023-02-07T20:34:16.139Z,-3.11
2023-02-07T20:36:43.950Z,-2.83
2023-02-07T20:39:19.063Z,-2.93
2023-02-07T20:41:47.656Z,-2.92
2023-02-07T20:44:26.721Z,-3.40
2023-02-07T20:46:55.718Z,-3.47
2023-02-07T20:49:28.706Z,-3.34
2023-02-07T20:51:57.215Z,-3.41
2023-02-07T20:54:27.081Z,-3.31
2023-02-07T20:56:54.845Z,-3.36
2023-02-07T20:59:28.013Z,-3.17
2023-02-07T21:01:55.629Z,-3.04
2023-02-07T21:04:23.206Z,-3.01
2023-02-07T21:06:51.098Z,-2.91
2023-02-07T21:09:18.530Z,-3.07
2023-02-07T21:11:51.824Z,-3.83
2023-02-07T21:14:20.519Z,-3.80
2023-02-07T21:16:54.934Z,-3.62
2023-02-07T21:19:23.628Z,-3.47
2023-02-07T21:21:51.409Z,-3.50
2023-02-07T21:24:21.477Z,-3.30
2023-02-07T21:26:50.038Z,-3.99
2023-02-07T21:29:17.488Z,-3.73
2023-02-07T21:31:45.658Z,-3.45
2023-02-07T21:34:15.732Z,-3.48
2023-02-07T21:36:42.714Z,-3.46
2023-02-07T21:39:12.608Z,-3.40
2023-02-07T21:41:42.555Z,-3.41
2023-02-07T21:44:10.678Z,-3.62
2023-02-07T21:46:40.149Z,-3.56
2023-02-07T21:49:14.913Z,-3.94
2023-02-07T21:51:43.527Z,-4.08
2023-02-07T21:54:10.916Z,-3.94
2023-02-07T21:56:39.967Z,-4.24
2023-02-07T21:59:18.808Z,-4.04
2023-02-07T22:01:46.795Z,-4.22
2023-02-07T22:04:53.755Z,-4.63
2023-02-07T22:33:43.819Z,-5.28
2023-02-07T22:43:40.373Z,-4.81
2023-02-07T22:46:09.423Z,-4.95
2023-02-07T22:48:36.499Z,-5.24
2023-02-07T22:51:19.294Z,-5.39
2023-02-07T22:53:46.782Z,-5.33
2023-02-07T22:56:13.950Z,-5.06
2023-02-07T22:58:42.119Z,-5.06
2023-02-07T23:01:24.614Z,-5.08
2023-02-07T23:03:52.918Z,-5.19
2023-02-07T23:06:21.014Z,-5.17
2023-02-07T23:08:48.540Z,-5.31
2023-02-07T23:11:17.106Z,-5.22
2023-02-07T23:13:45.204Z,-5.06
2023-02-07T23:16:18.426Z,-5.21
2023-02-07T23:18:45.444Z,-5.05
2023-02-07T23:21:15.370Z,-4.92
2023-02-07T23:23:43.091Z,-5.02
2023-02-07T23:26:16.100Z,-5.43
2023-02-07T23:28:44.158Z,-5.12
2023-02-07T23:31:15.645Z,-5.05
2023-02-07T23:33:42.970Z,-5.03
2023-02-07T23:36:10.541Z,-5.32
2023-02-07T23:38:38.069Z,-5.47
2023-02-07T23:41:07.550Z,-5.16
2023-02-07T23:43:36.216Z,-5.14
2023-02-07T23:46:03.522Z,-5.93
2023-02-07T23:48:30.844Z,-5.53
2023-02-07T23:50:58.964Z,-5.69
2023-02-07T23:53:29.795Z,-5.80
2023-02-07T23:55:57.528Z,-5.67
2023-02-07T23:58:25.962Z,-5.62
